Time;durP1;ratioP1;P1;durP2;ratioP2;P2;SDS_P1;SDS_P2;PMS_P1;PMS_P2;Temp;Humidity;BMP_temperature;BMP_pressure;BME280_temperature;BME280_humidity;BME280_pressure;Samples;Min_cycle;Max_cycle;Signal;HPM_P1;HPM_P2
2021/04/04 00:00:38;;;;;;;10.90;3.67;;;9.50;79.30;;;;;;6188473;23;20482;-83
2021/04/04 00:07:23;;;;;;;15.63;4.90;;;9.50;79.20;;;;;;6100832;23;20467;-82
2021/04/04 00:13:17;;;;;;;9.13;3.97;;;9.40;79.70;;;;;;6205321;23;20465;-84
2021/04/04 00:16:05;;;;;;;12.33;4.70;;;9.40;79.80;;;;;;6147299;23;20440;-83
2021/04/04 00:18:37;;;;;;;10.40;4.87;;;9.30;80.20;;;;;;6157031;23;20408;-83
2021/04/04 00:21:20;;;;;;;13.40;4.77;;;9.20;80.30;;;;;;6157194;23;20804;-83
2021/04/04 00:24:18;;;;;;;15.53;4.60;;;9.20;80.80;;;;;;6154106;23;21249;-82
2021/04/04 00:27:16;;;;;;;11.63;4.50;;;9.30;80.90;;;;;;6180584;23;20420;-80
2021/04/04 00:30:24;;;;;;;8.40;3.90;;;9.20;80.80;;;;;;6156594;23;20386;-84
2021/04/04 00:33:20;;;;;;;10.27;4.20;;;9.10;81.60;;;;;;6155829;23;20449;-83
2021/04/04 00:35:55;;;;;;;18.23;4.33;;;9.00;82.00;;;;;;6155008;23;20402;-83
2021/04/04 00:38:56;;;;;;;11.27;4.23;;;8.90;82.70;;;;;;6181791;23;20646;-84
2021/04/04 00:42:13;;;;;;;9.87;4.43;;;8.90;83.50;;;;;;6183205;23;20434;-83
2021/04/04 00:44:59;;;;;;;10.87;4.03;;;8.90;83.80;;;;;;6146807;23;20429;-82
2021/04/04 00:47:57;;;;;;;9.63;4.10;;;8.90;83.80;;;;;;6182306;23;20437;-83
2021/04/04 00:50:49;;;;;;;12.07;4.93;;;8.90;83.90;;;;;;6182156;23;20785;-81
2021/04/04 00:53:32;;;;;;;12.73;4.37;;;8.90;84.10;;;;;;6155665;23;20541;-83
2021/04/04 00:56:16;;;;;;;8.20;3.83;;;8.80;84.20;;;;;;6179778;23;20402;-84
2021/04/04 00:59:43;;;;;;;;;;;;;;;;;;;;;
2021/04/04 01:02:24;;;;;;;10.00;3.93;;;8.90;84.50;;;;;;6169896;23;20434;-81
2021/04/04 01:05:48;;;;;;;11.37;4.77;;;8.90;84.50;;;;;;6076469;23;20397;-82
2021/04/04 01:08:29;;;;;;;14.93;4.57;;;8.90;84.20;;;;;;6078114;23;20429;-82
2021/04/04 01:11:28;;;;;;;13.87;5.10;;;8.90;83.90;;;;;;6058872;23;20453;-84
2021/04/04 01:14:37;;;;;;;11.10;4.90;;;8.90;83.90;;;;;;6018707;23;20512;-82
2021/04/04 01:17:22;;;;;;;12.70;4.90;;;9.10;83.70;;;;;;6079930;23;20398;-82
2021/04/04 01:20:31;;;;;;;6.60;3.77;;;9.10;83.30;;;;;;6060849;23;20416;-82
2021/04/04 01:24:18;;;;;;;11.77;4.30;;;9.00;83.40;;;;;;6147370;23;20460;-82
2021/04/04 01:27:13;;;;;;;11.70;3.90;;;8.90;83.90;;;;;;6198301;23;20417;-82
2021/04/04 01:30:01;;;;;;;13.53;4.57;;;9.00;84.10;;;;;;6178556;23;20512;-83
2021/04/04 01:33:11;;;;;;;11.20;4.67;;;9.00;83.60;;;;;;6153026;23;20548;-84
2021/04/04 01:36:08;;;;;;;14.97;5.20;;;9.10;82.70;;;;;;6182911;23;20413;-85
2021/04/04 01:38:53;;;;;;;11.03;4.77;;;9.10;83.20;;;;;;6161343;23;20434;-84
2021/04/04 01:42:26;;;;;;;12.33;4.23;;;9.00;83.50;;;;;;6156635;23;20418;-84
2021/04/04 01:45:15;;;;;;;7.73;3.77;;;9.00;83.80;;;;;;6186241;23;20475;-84
2021/04/04 01:48:14;;;;;;;12.47;5.30;;;8.90;84.10;;;;;;6153831;23;20386;-82
2021/04/04 01:51:06;;;;;;;9.50;4.87;;;8.90;84.50;;;;;;6180693;23;20453;-81
2021/04/04 01:54:14;;;;;;;10.30;4.20;;;9.00;84.70;;;;;;6203552;23;20529;-83
2021/04/04 01:57:27;;;;;;;10.00;4.70;;;8.90;84.50;;;;;;6177744;23;20429;-81
2021/04/04 02:00:42;;;;;;;8.03;4.13;;;8.90;84.90;;;;;;6187214;23;20481;-84
2021/04/04 02:07:18;;;;;;;18.50;4.87;;;8.90;85.00;;;;;;6103018;23;20411;-83
2021/04/04 02:14:13;;;;;;;8.23;4.90;;;8.70;85.20;;;;;;6188101;23;20508;-81
2021/04/04 02:17:06;;;;;;;12.60;4.87;;;8.70;85.90;;;;;;6154361;23;20410;-85
2021/04/04 02:23:07;;;;;;;11.97;4.80;;;9.00;85.30;;;;;;6164940;23;20478;-83
2021/04/04 02:26:15;;;;;;;10.83;4.80;;;8.90;85.20;;;;;;6176375;23;20394;-82
2021/04/04 02:29:12;;;;;;;11.40;4.97;;;8.80;85.70;;;;;;6175391;23;20434;-82
2021/04/04 02:32:28;;;;;;;11.63;6.10;;;8.70;86.30;;;;;;6176486;23;20433;-82
2021/04/04 02:35:00;;;;;;;16.17;5.10;;;8.60;87.00;;;;;;6180136;23;20412;-84
2021/04/04 02:37:53;;;;;;;9.43;4.63;;;8.60;87.00;;;;;;6159558;23;20421;-86
2021/04/04 02:40:56;;;;;;;17.83;6.03;;;8.50;87.40;;;;;;6157586;23;20405;-84
2021/04/04 02:43:44;;;;;;;14.37;5.60;;;8.60;87.30;;;;;;6158952;23;20429;-85
2021/04/04 02:46:49;;;;;;;12.50;4.90;;;8.70;87.60;;;;;;6090303;23;20413;-85
2021/04/04 02:49:44;;;;;;;14.00;5.30;;;8.70;87.10;;;;;;6089833;23;20416;-84
2021/04/04 02:52:42;;;;;;;12.73;5.13;;;8.70;86.80;;;;;;6052537;23;20517;-84
2021/04/04 02:55:48;;;;;;;10.40;5.03;;;8.60;86.70;;;;;;6096570;23;20450;-83
2021/04/04 02:59:35;;;;;;;12.00;4.43;;;8.70;86.30;;;;;;6075487;23;20408;-85
2021/04/04 03:02:43;;;;;;;7.67;3.80;;;8.90;85.30;;;;;;6042020;23;21026;-83
2021/04/04 03:05:27;;;;;;;13.87;4.70;;;9.40;82.20;;;;;;6090347;23;20946;-82
2021/04/04 03:08:12;;;;;;;8.37;4.33;;;9.10;81.50;;;;;;6068950;23;20995;-84
2021/04/04 03:11:06;;;;;;;13.47;4.50;;;8.80;82.20;;;;;;6090848;23;20520;-85
2021/04/04 03:14:45;;;;;;;12.40;5.67;;;9.00;82.80;;;;;;6073444;23;20491;-84
2021/04/04 03:17:17;;;;;;;9.10;4.10;;;8.80;82.60;;;;;;6132130;23;20449;-84
2021/04/04 03:27:26;;;;;;;10.53;4.30;;;8.70;83.70;;;;;;6200246;23;20417;-84
2021/04/04 03:30:08;;;;;;;12.87;3.97;;;8.80;82.90;;;;;;6179725;23;20433;-83
2021/04/04 03:33:03;;;;;;;14.37;6.40;;;8.80;82.80;;;;;;6185769;23;20624;-83
2021/04/04 03:36:05;;;;;;;12.53;4.37;;;8.70;83.60;;;;;;6204174;23;20464;-80
2021/04/04 03:38:56;;;;;;;12.30;5.20;;;8.60;83.80;;;;;;6180372;23;20414;-84
2021/04/04 03:42:02;;;;;;;13.80;4.80;;;8.80;83.30;;;;;;6159451;23;20437;-81
2021/04/04 03:44:44;;;;;;;10.00;4.83;;;8.80;82.70;;;;;;6143542;23;20496;-81
2021/04/04 03:47:45;;;;;;;10.80;4.87;;;8.60;83.40;;;;;;6178743;23;20398;-82
2021/04/04 03:50:17;;;;;;;8.37;4.30;;;8.60;83.50;;;;;;6156089;23;20414;-84
2021/04/04 03:53:08;;;;;;;17.43;4.27;;;8.80;83.50;;;;;;6179389;23;20499;-83
2021/04/04 03:56:04;;;;;;;15.93;4.30;;;8.80;83.20;;;;;;6157699;23;20416;-83
2021/04/04 03:59:04;;;;;;;11.90;4.00;;;8.60;83.20;;;;;;6157937;23;20418;-84
2021/04/04 04:01:53;;;;;;;9.10;4.10;;;8.60;83.30;;;;;;6177733;23;20509;-84
2021/04/04 04:04:51;;;;;;;8.63;4.30;;;8.50;83.70;;;;;;6156427;23;20414;-85
2021/04/04 04:08:16;;;;;;;13.37;4.80;;;8.50;83.80;;;;;;6164111;23;20412;-84
2021/04/04 04:10:54;;;;;;;12.73;4.87;;;8.50;83.90;;;;;;6159488;23;20491;-84
2021/04/04 04:13:34;;;;;;;6.90;3.47;;;8.40;84.10;;;;;;6184339;23;20807;-81
2021/04/04 04:16:15;;;;;;;19.30;5.20;;;8.50;84.40;;;;;;6186198;23;20390;-83
2021/04/04 04:19:19;;;;;;;15.10;5.47;;;8.60;84.20;;;;;;6159932;23;20416;-83
2021/04/04 04:22:33;;;;;;;12.17;5.90;;;8.80;83.50;;;;;;6181301;23;20405;-82
2021/04/04 04:25:13;;;;;;;12.50;4.70;;;8.50;84.90;;;;;;6179233;23;20436;-82
2021/04/04 04:28:36;;;;;;;;;;;;;;;;;;;;;
2021/04/04 04:34:16;;;;;;;11.77;4.53;;;8.30;86.80;;;;;;6145956;23;20442;-82
2021/04/04 04:36:57;;;;;;;15.03;4.70;;;8.30;86.90;;;;;;6113939;23;20412;-82
2021/04/04 04:39:44;;;;;;;14.50;5.23;;;8.30;86.30;;;;;;6109377;23;20416;-84
2021/04/04 04:42:24;;;;;;;10.33;5.17;;;8.20;86.80;;;;;;6099406;23;20434;-85
2021/04/04 04:45:23;;;;;;;13.40;5.07;;;8.30;87.30;;;;;;6123445;23;20426;-85
2021/04/04 04:48:22;;;;;;;14.50;6.10;;;8.30;86.90;;;;;;6102161;23;20427;-84
2021/04/04 04:51:43;;;;;;;12.03;6.23;;;8.30;87.60;;;;;;6113024;23;20529;-85
2021/04/04 04:54:27;;;;;;;15.10;6.30;;;8.20;87.20;;;;;;6097205;23;20456;-84
2021/04/04 04:57:17;;;;;;;14.20;5.50;;;8.30;87.30;;;;;;6102610;23;20958;-85
2021/04/04 05:00:08;;;;;;;10.37;5.00;;;8.30;87.40;;;;;;6101176;23;20419;-85
2021/04/04 05:06:48;;;;;;;13.20;5.70;;;8.20;87.80;;;;;;6089526;23;20399;-82
2021/04/04 05:09:48;;;;;;;9.43;4.93;;;8.20;88.00;;;;;;5956116;23;20443;-81
2021/04/04 05:12:47;;;;;;;13.23;5.33;;;8.10;88.10;;;;;;6030385;23;20448;-81
2021/04/04 05:15:27;;;;;;;10.87;5.53;;;8.10;88.10;;;;;;6020869;23;20443;-82
2021/04/04 05:18:47;;;;;;;9.97;5.10;;;8.10;88.10;;;;;;5992634;23;20539;-83
2021/04/04 05:21:33;;;;;;;11.80;5.10;;;8.20;88.20;;;;;;6007059;23;20420;-83
2021/04/04 05:24:28;;;;;;;16.70;5.10;;;8.20;88.10;;;;;;5954095;24;20424;-83
2021/04/04 05:27:02;;;;;;;12.70;4.97;;;8.20;87.60;;;;;;5977715;23;20843;-83
2021/04/04 05:29:54;;;;;;;12.00;4.50;;;8.20;87.60;;;;;;5978087;23;20551;-84
2021/04/04 05:32:41;;;;;;;12.00;5.70;;;8.30;86.90;;;;;;5954982;24;20521;-84
2021/04/04 05:35:36;;;;;;;10.73;4.70;;;8.40;86.70;;;;;;5976460;24;20426;-84
2021/04/04 05:38:50;;;;;;;;;;;;;;;;;;;;;
2021/04/04 05:42:17;;;;;;;8.40;4.53;;;8.40;86.20;;;;;;6040377;23;20446;-81
2021/04/04 05:45:22;;;;;;;13.37;5.53;;;8.20;86.60;;;;;;6118817;23;20435;-84
2021/04/04 05:48:51;;;;;;;;;;;;;;;;;;;;;
2021/04/04 05:52:10;;;;;;;11.10;4.93;;;8.30;86.80;;;;;;6118975;23;20494;-81
2021/04/04 05:55:22;;;;;;;14.57;4.37;;;8.40;86.70;;;;;;6096228;23;20482;-83
2021/04/04 05:58:22;;;;;;;9.47;4.97;;;8.40;86.30;;;;;;6096979;23;20419;-83
2021/04/04 06:02:00;;;;;;;9.77;4.63;;;8.40;86.60;;;;;;6004414;23;20399;-84
2021/04/04 06:05:23;;;;;;;13.67;4.63;;;8.30;86.90;;;;;;5982313;23;20412;-84
2021/04/04 06:09:06;;;;;;;9.20;4.20;;;8.30;87.00;;;;;;6004074;23;20418;-83
2021/04/04 06:12:11;;;;;;;9.00;4.47;;;8.30;87.00;;;;;;5982607;23;20471;-85
2021/04/04 06:15:38;;;;;;;11.93;6.23;;;8.30;87.10;;;;;;5969452;23;20408;-83
2021/04/04 06:18:46;;;;;;;10.63;4.40;;;8.60;86.80;;;;;;6006994;23;20415;-83
2021/04/04 06:22:11;;;;;;;13.20;4.83;;;8.60;85.70;;;;;;6005961;23;20439;-82
2021/04/04 06:25:21;;;;;;;10.33;4.63;;;8.40;85.90;;;;;;6010107;23;20447;-84
2021/04/04 06:28:49;;;;;;;10.23;4.20;;;8.40;86.50;;;;;;6003680;23;20429;-82
2021/04/04 06:32:23;;;;;;;9.73;5.17;;;8.30;86.50;;;;;;5888902;24;20878;-84
2021/04/04 06:35:40;;;;;;;;;;;;;;;;;;;;;
2021/04/04 06:39:08;;;;;;;10.30;5.37;;;8.30;87.40;;;;;;6069564;23;20396;-83
2021/04/04 06:46:14;;;;;;;13.50;6.67;;;8.40;88.00;;;;;;6118295;23;20481;-87
2021/04/04 06:49:35;;;;;;;12.70;5.00;;;8.50;87.30;;;;;;6097439;23;20446;-85
2021/04/04 06:53:01;;;;;;;11.33;5.40;;;8.40;87.40;;;;;;6117192;23;20459;-85
2021/04/04 06:56:08;;;;;;;10.73;4.40;;;8.50;87.30;;;;;;6099902;23;20425;-85
2021/04/04 06:59:31;;;;;;;;;;;;;;;;;;;;;
2021/04/04 07:02:43;;;;;;;;;;;;;;;;;;;;;
2021/04/04 07:09:38;;;;;;;12.67;5.77;;;8.40;88.40;;;;;;6059987;23;20505;-83
2021/04/04 07:13:20;;;;;;;14.53;5.83;;;8.50;88.50;;;;;;6078133;23;20455;-84
2021/04/04 07:16:46;;;;;;;13.70;5.83;;;8.70;88.30;;;;;;6120526;23;20482;-82
2021/04/04 07:19:59;;;;;;;17.07;6.07;;;8.50;88.00;;;;;;6079143;23;20482;-81
2021/04/04 07:34:57;;;;;;;;;;;;;;;;;;;;;
2021/04/04 07:38:32;;;;;;;11.60;6.10;;;8.60;86.30;;;;;;5883905;24;20460;-84
2021/04/04 07:41:36;;;;;;;;;;;;;;;;;;;;;
2021/04/04 07:45:21;;;;;;;12.33;5.43;;;8.60;86.80;;;;;;6073404;23;20565;-84
2021/04/04 07:52:52;;;;;;;13.73;6.20;;;8.50;86.50;;;;;;5950181;23;20415;-84
2021/04/04 07:56:23;;;;;;;10.47;6.20;;;8.40;86.50;;;;;;6011012;23;20865;-83
2021/04/04 07:59:52;;;;;;;10.30;5.70;;;8.30;87.20;;;;;;6045400;23;20422;-85
2021/04/04 08:03:14;;;;;;;11.20;6.70;;;8.50;87.10;;;;;;6072846;23;20462;-85
2021/04/04 08:07:26;;;;;;;15.93;8.10;;;8.50;86.10;;;;;;6130345;23;20940;-85
2021/04/04 08:15:06;;;;;;;16.80;7.33;;;8.50;84.70;;;;;;5922030;24;20461;-83
2021/04/04 08:18:14;;;;;;;16.20;7.83;;;8.50;83.50;;;;;;5899899;24;20437;-83
2021/04/04 08:22:23;;;;;;;;;;;;;;;;;;;;;
2021/04/04 08:29:27;;;;;;;13.73;7.50;;;8.60;81.60;;;;;;5875091;24;20398;-84
2021/04/04 08:32:35;;;;;;;;;;;;;;;;;;;;;
2021/04/04 08:39:44;;;;;;;13.50;9.10;;;8.80;81.40;;;;;;6006066;23;20420;-86
2021/04/04 08:46:50;;;;;;;13.63;7.37;;;9.10;79.40;;;;;;5949657;24;20422;-82
2021/04/04 08:54:50;;;;;;;17.77;10.13;;;9.30;77.20;;;;;;5833631;24;20507;-85
2021/04/04 08:58:19;;;;;;;18.57;12.20;;;9.70;74.50;;;;;;5839316;24;20449;-83
2021/04/04 09:09:10;;;;;;;22.63;13.33;;;9.40;75.00;;;;;;6017612;23;20448;-82
2021/04/04 09:12:40;;;;;;;20.27;12.17;;;9.20;75.30;;;;;;6038459;23;20428;-82
2021/04/04 09:16:31;;;;;;;;;;;;;;;;;;;;;
2021/04/04 09:23:40;;;;;;;23.57;15.87;;;8.90;77.20;;;;;;5972851;23;20435;-83
2021/04/04 09:36:08;;;;;;;21.30;14.40;;;9.00;77.30;;;;;;6110392;23;20437;-84
2021/04/04 09:39:40;;;;;;;;;;;;;;;;;;;;;
2021/04/04 09:43:02;;;;;;;20.37;12.03;;;9.00;78.00;;;;;;6194754;23;20504;-84
2021/04/04 09:46:16;;;;;;;18.00;11.53;;;8.90;78.70;;;;;;6132347;23;20398;-81
2021/04/04 09:49:33;;;;;;;22.00;13.10;;;8.70;79.40;;;;;;6165593;23;20406;-84
2021/04/04 09:53:20;;;;;;;17.40;10.27;;;8.70;80.00;;;;;;6170510;23;20448;-84
2021/04/04 10:02:44;;;;;;;15.20;8.50;;;8.90;80.60;;;;;;6205793;23;20437;-81
2021/04/04 10:06:09;;;;;;;15.10;8.77;;;8.80;81.10;;;;;;6215709;23;20397;-83
2021/04/04 10:09:29;;;;;;;15.27;8.93;;;8.90;81.30;;;;;;6215704;23;20521;-82
2021/04/04 10:21:10;;;;;;;13.47;10.27;;;8.80;82.60;;;;;;6123274;23;20420;-81
2021/04/04 10:28:15;;;;;;;19.47;10.83;;;9.00;82.30;;;;;;6049106;23;20414;-83
2021/04/04 10:35:02;;;;;;;16.13;11.07;;;9.00;82.70;;;;;;5987029;24;20816;-85
2021/04/04 10:41:43;;;;;;;15.93;10.10;;;9.10;81.60;;;;;;6047166;23;20397;-81
2021/04/04 10:45:32;;;;;;;14.53;9.27;;;9.20;81.70;;;;;;6004886;23;20408;-84
2021/04/04 10:48:16;;;;;;;19.90;8.43;;;9.40;81.00;;;;;;6039331;23;21008;-84
2021/04/04 10:51:35;;;;;;;13.10;7.80;;;9.30;81.00;;;;;;6003593;23;20488;-84
2021/04/04 10:54:40;;;;;;;12.83;8.00;;;9.30;81.20;;;;;;6003581;23;21394;-82
2021/04/04 10:57:48;;;;;;;9.07;6.67;;;9.60;80.60;;;;;;6032196;23;20437;-82
2021/04/04 11:00:55;;;;;;;8.30;6.80;;;9.40;80.10;;;;;;6032657;23;20434;-82
2021/04/04 11:04:13;;;;;;;10.73;5.47;;;9.20;80.90;;;;;;6115141;23;20451;-83
2021/04/04 11:10:47;;;;;;;11.93;6.73;;;9.50;80.90;;;;;;5985615;23;20489;-82
2021/04/04 11:13:59;;;;;;;;;;;;;;;;;;;;;
2021/04/04 11:17:13;;;;;;;10.73;7.83;;;9.40;80.30;;;;;;6132910;23;20409;-83
2021/04/04 11:20:12;;;;;;;10.33;7.10;;;9.20;81.10;;;;;;6159660;23;20419;-82
2021/04/04 11:23:43;;;;;;;6.83;5.80;;;9.20;81.80;;;;;;6103746;23;20487;-83
2021/04/04 11:27:10;;;;;;;14.77;6.47;;;9.20;81.80;;;;;;5929653;24;20426;-82
2021/04/04 11:30:54;;;;;;;16.83;11.07;;;9.40;81.60;;;;;;5967133;23;20464;-82
2021/04/04 11:34:34;;;;;;;9.73;6.60;;;9.50;81.40;;;;;;5964578;23;20466;-85
2021/04/04 11:37:32;;;;;;;17.03;7.50;;;9.30;81.40;;;;;;5980280;23;20424;-84
2021/04/04 11:44:41;;;;;;;9.23;6.80;;;9.40;81.30;;;;;;5911826;24;20827;-83
2021/04/04 11:47:33;;;;;;;8.53;5.63;;;9.70;80.60;;;;;;5995234;24;20408;-82
2021/04/04 11:50:35;;;;;;;11.93;5.13;;;9.60;80.50;;;;;;5982768;24;20399;-84
2021/04/04 11:53:40;;;;;;;5.93;4.83;;;9.80;80.80;;;;;;6021619;23;20440;-82
2021/04/04 11:57:04;;;;;;;9.27;4.93;;;10.20;77.20;;;;;;6078878;23;20420;-82
2021/04/04 12:03:51;;;;;;;;;;;;;;;;;;;;;
2021/04/04 12:10:03;;;;;;;6.53;5.20;;;10.30;76.50;;;;;;6179467;23;20477;-84
2021/04/04 12:13:19;;;;;;;12.00;5.27;;;10.10;76.80;;;;;;6158232;23;20426;-83
2021/04/04 12:16:26;;;;;;;11.20;5.17;;;9.70;79.00;;;;;;6044836;23;20429;-84
2021/04/04 12:22:41;;;;;;;7.10;5.10;;;9.60;80.70;;;;;;6069250;23;20966;-82
2021/04/04 12:25:31;;;;;;;6.87;4.10;;;9.50;81.50;;;;;;6041779;23;20420;-82
2021/04/04 12:28:27;;;;;;;7.63;5.23;;;9.70;81.50;;;;;;6032301;23;20456;-83
2021/04/04 12:32:09;;;;;;;;;;;;;;;;;;;;;
2021/04/04 12:34:42;;;;;;;6.13;5.50;;;9.60;81.20;;;;;;6034716;23;21070;-84
2021/04/04 12:38:09;;;;;;;9.03;5.80;;;9.60;81.60;;;;;;6056522;23;20416;-81
2021/04/04 12:41:25;;;;;;;6.90;4.50;;;9.50;81.60;;;;;;6048180;23;20508;-84
2021/04/04 12:45:14;;;;;;;8.67;5.63;;;9.60;81.60;;;;;;6073007;23;20417;-82
2021/04/04 12:47:54;;;;;;;5.10;4.30;;;9.60;81.90;;;;;;6069367;23;20418;-83
2021/04/04 12:51:11;;;;;;;8.33;5.53;;;9.60;81.70;;;;;;6064469;23;20417;-83
2021/04/04 12:54:28;;;;;;;10.50;5.90;;;9.80;81.30;;;;;;6023645;23;20443;-85
2021/04/04 12:57:32;;;;;;;7.83;5.30;;;9.70;81.00;;;;;;6034153;23;20501;-85
2021/04/04 13:00:42;;;;;;;8.77;5.60;;;9.60;81.40;;;;;;6007952;23;20433;-85
2021/04/04 13:03:42;;;;;;;9.70;5.97;;;9.50;81.90;;;;;;6056710;23;21079;-82
2021/04/04 13:13:47;;;;;;;10.00;5.20;;;9.70;81.80;;;;;;5928887;23;20606;-85
2021/04/04 13:16:35;;;;;;;6.90;5.07;;;9.70;81.90;;;;;;5978831;24;20416;-86
2021/04/04 13:19:21;;;;;;;6.40;5.50;;;9.70;81.70;;;;;;6047361;23;20457;-85
2021/04/04 13:27:55;;;;;;;8.60;5.10;;;9.90;80.80;;;;;;6202036;23;20448;-83
2021/04/04 13:31:06;;;;;;;7.67;5.90;;;9.90;80.70;;;;;;6181082;23;20398;-84
2021/04/04 13:34:49;;;;;;;;;;;;;;;;;;;;;
2021/04/04 13:38:26;;;;;;;12.43;6.40;;;9.90;80.90;;;;;;6030307;23;20390;-83
2021/04/04 13:41:52;;;;;;;9.30;6.93;;;9.80;81.20;;;;;;6089307;23;20471;-84
2021/04/04 13:45:10;;;;;;;10.53;6.40;;;9.70;81.50;;;;;;6151642;23;20418;-85
2021/04/04 13:48:41;;;;;;;7.70;6.10;;;9.70;82.00;;;;;;6151136;23;20423;-84
2021/04/04 14:00:10;;;;;;;7.37;6.13;;;9.90;81.60;;;;;;6123642;23;20414;-84
2021/04/04 14:03:14;;;;;;;9.10;6.07;;;10.10;78.90;;;;;;6129949;23;20434;-83
2021/04/04 14:09:50;;;;;;;11.70;7.30;;;10.20;77.90;;;;;;6151336;23;20419;-84
2021/04/04 14:12:42;;;;;;;10.30;7.53;;;10.30;77.80;;;;;;6099961;23;20790;-82
2021/04/04 14:15:40;;;;;;;9.40;6.57;;;10.20;77.90;;;;;;6152865;23;20403;-84
2021/04/04 14:18:33;;;;;;;12.73;8.00;;;10.40;78.60;;;;;;6124695;23;20730;-83
2021/04/04 14:24:17;;;;;;;13.27;8.67;;;10.40;77.40;;;;;;6201374;23;20464;-84
2021/04/04 14:27:27;;;;;;;17.30;9.40;;;10.20;77.70;;;;;;6168673;23;20435;-85
2021/04/04 14:30:28;;;;;;;14.73;8.70;;;10.50;77.60;;;;;;6178327;23;20465;-87
2021/04/04 14:37:44;;;;;;;17.13;9.03;;;10.60;77.00;;;;;;6157479;23;20972;-84
2021/04/04 14:41:10;;;;;;;10.50;8.20;;;10.50;76.20;;;;;;6125076;23;20399;-85
2021/04/04 14:48:25;;;;;;;12.37;10.70;;;10.50;76.30;;;;;;6064313;23;20516;-84
2021/04/04 14:51:36;;;;;;;16.60;10.53;;;10.40;76.40;;;;;;6045450;23;20414;-85
2021/04/04 14:54:44;;;;;;;17.20;11.33;;;10.40;76.40;;;;;;6154812;23;20470;-86
2021/04/04 14:57:41;;;;;;;;;;;;;;;;;;;;;
2021/04/04 15:00:42;;;;;;;12.53;7.27;;;10.30;77.00;;;;;;6170906;23;20395;-83
2021/04/04 15:03:42;;;;;;;10.87;8.80;;;10.40;76.70;;;;;;6170720;23;20515;-83
2021/04/04 15:07:39;;;;;;;;;;;;;;;;;;;;;
2021/04/04 15:11:09;;;;;;;10.93;8.00;;;10.40;77.10;;;;;;6166676;23;20402;-83
2021/04/04 15:14:02;;;;;;;17.73;9.10;;;11.30;75.10;;;;;;6154510;23;20451;-84
2021/04/04 15:27:48;;;;;;;10.43;7.93;;;10.60;75.10;;;;;;6157105;23;20411;-81
2021/04/04 15:30:55;;;;;;;;;;;;;;;;;;;;;
2021/04/04 15:34:07;;;;;;;11.80;7.40;;;11.10;72.90;;;;;;6126034;23;20509;-83
2021/04/04 15:37:06;;;;;;;10.13;7.57;;;10.70;74.30;;;;;;6118090;23;20443;-85
2021/04/04 15:40:33;;;;;;;10.47;7.63;;;10.50;75.10;;;;;;6129741;23;20431;-83
2021/04/04 15:43:48;;;;;;;12.07;8.90;;;10.50;75.60;;;;;;6098632;23;20440;-83
2021/04/04 15:46:56;;;;;;;10.70;7.73;;;10.40;75.40;;;;;;6089817;23;20475;-84
2021/04/04 15:50:15;;;;;;;9.50;6.90;;;11.10;73.80;;;;;;6101816;23;21242;-86
2021/04/04 15:53:26;;;;;;;9.87;8.10;;;11.30;71.90;;;;;;6038469;23;20415;-85
2021/04/04 15:56:27;;;;;;;14.30;8.90;;;11.30;72.20;;;;;;6122478;23;20472;-81
2021/04/04 15:59:14;;;;;;;9.13;8.00;;;10.80;72.90;;;;;;6115826;23;20402;-82
2021/04/04 16:02:33;;;;;;;13.50;8.40;;;10.60;74.20;;;;;;6100677;23;20478;-81
2021/04/04 16:05:09;;;;;;;10.53;8.77;;;10.50;74.80;;;;;;6017201;23;20427;-85
2021/04/04 16:08:23;;;;;;;10.03;7.67;;;10.50;75.20;;;;;;6099018;23;20408;-83
2021/04/04 16:11:27;;;;;;;13.63;8.50;;;10.50;75.30;;;;;;6128638;23;20426;-84
2021/04/04 16:14:33;;;;;;;8.60;6.57;;;10.60;74.90;;;;;;6107172;23;20454;-85
2021/04/04 16:17:13;;;;;;;9.40;7.43;;;10.70;74.40;;;;;;6137090;23;20436;-83
2021/04/04 16:19:45;;;;;;;8.40;6.53;;;10.70;74.60;;;;;;6117267;23;20408;-82
2021/04/04 16:22:21;;;;;;;10.47;6.13;;;10.70;74.70;;;;;;6129966;23;20460;-84
2021/04/04 16:25:00;;;;;;;8.73;6.87;;;10.60;74.60;;;;;;6127838;23;20621;-83
2021/04/04 16:31:16;;;;;;;9.93;6.97;;;10.50;74.80;;;;;;6130795;23;20396;-84
2021/04/04 16:34:30;;;;;;;7.57;6.77;;;10.30;75.20;;;;;;6107879;23;20575;-84
2021/04/04 16:37:38;;;;;;;9.10;6.87;;;10.50;75.10;;;;;;6041925;23;20453;-83
2021/04/04 16:43:59;;;;;;;6.77;6.00;;;10.60;74.80;;;;;;5941569;24;20430;-84
2021/04/04 16:46:56;;;;;;;10.13;6.10;;;10.50;74.70;;;;;;5942208;24;20497;-82
2021/04/04 16:49:22;;;;;;;9.13;6.83;;;10.50;74.80;;;;;;5945517;24;20433;-83
2021/04/04 16:51:54;;;;;;;11.73;8.07;;;10.80;75.10;;;;;;5923741;24;20461;-81
2021/04/04 16:54:21;;;;;;;12.63;7.80;;;10.70;74.20;;;;;;5922155;24;20461;-81
2021/04/04 16:59:34;;;;;;;12.50;7.30;;;10.40;75.40;;;;;;6179913;23;20534;-83
2021/04/04 17:02:04;;;;;;;13.67;7.67;;;10.40;75.80;;;;;;6163915;23;20565;-82
2021/04/04 17:04:35;;;;;;;9.07;6.43;;;10.30;76.20;;;;;;6132726;23;20906;-80
2021/04/04 17:07:02;;;;;;;10.07;6.70;;;10.80;75.30;;;;;;6144319;23;21310;-84
2021/04/04 17:09:30;;;;;;;8.77;6.17;;;10.60;75.10;;;;;;6139779;23;20430;-81
2021/04/04 17:11:57;;;;;;;11.27;6.83;;;10.80;75.20;;;;;;6139696;23;20443;-82
2021/04/04 17:14:23;;;;;;;9.83;6.70;;;10.50;75.40;;;;;;6169823;23;20439;-83
2021/04/04 17:16:49;;;;;;;13.30;6.30;;;10.40;76.00;;;;;;6140160;23;20421;-82
2021/04/04 17:19:16;;;;;;;9.93;6.60;;;10.40;76.60;;;;;;6135570;23;20882;-82
2021/04/04 17:21:45;;;;;;;15.13;11.47;;;10.50;76.30;;;;;;6137687;23;20462;-83
2021/04/04 17:24:12;;;;;;;17.47;10.53;;;10.40;76.80;;;;;;6171406;23;20421;-80
2021/04/04 17:26:42;;;;;;;13.40;8.33;;;10.30;77.20;;;;;;6172350;23;20421;-81
2021/04/04 17:29:10;;;;;;;10.17;6.20;;;10.30;77.70;;;;;;6173719;23;20777;-83
2021/04/04 17:31:38;;;;;;;19.37;10.37;;;10.20;77.70;;;;;;6173216;23;20430;-83
2021/04/04 17:34:05;;;;;;;23.77;14.77;;;10.20;77.80;;;;;;6163249;23;20442;-82
2021/04/04 17:36:32;;;;;;;11.47;9.60;;;10.20;78.10;;;;;;6159684;23;20411;-82
2021/04/04 17:38:59;;;;;;;11.60;6.90;;;10.20;78.30;;;;;;6132068;23;20498;-83
2021/04/04 17:41:25;;;;;;;10.53;7.47;;;10.10;78.40;;;;;;6158580;23;20987;-84
2021/04/04 17:43:52;;;;;;;7.47;6.20;;;10.10;78.50;;;;;;6137402;23;20446;-84
2021/04/04 17:46:19;;;;;;;8.63;5.90;;;10.10;78.40;;;;;;6134786;23;20484;-84
2021/04/04 17:48:46;;;;;;;9.30;7.00;;;10.10;78.60;;;;;;6144035;23;20531;-82
2021/04/04 17:51:14;;;;;;;18.70;12.63;;;10.00;78.70;;;;;;6222532;23;20417;-82
2021/04/04 17:53:41;;;;;;;12.33;8.70;;;10.00;79.10;;;;;;6224753;23;20451;-84
2021/04/04 17:56:08;;;;;;;21.80;13.70;;;9.90;80.60;;;;;;6227649;23;20439;-83
2021/04/04 17:58:38;;;;;;;32.73;26.23;;;9.90;80.70;;;;;;6203505;23;20480;-81
2021/04/04 18:01:05;;;;;;;22.13;16.43;;;10.00;79.60;;;;;;6231108;23;20683;-80
2021/04/04 18:03:34;;;;;;;12.40;8.33;;;10.00;79.70;;;;;;6205342;23;20413;-80
2021/04/04 18:11:41;;;;;;;12.97;6.70;;;10.80;76.70;;;;;;6078517;23;20547;-81
2021/04/04 18:14:11;;;;;;;20.67;14.43;;;10.70;76.30;;;;;;6172236;23;20909;-84
2021/04/04 18:16:38;;;;;;;15.03;8.57;;;10.80;76.10;;;;;;6196387;23;20479;-83
2021/04/04 18:19:05;;;;;;;34.60;20.33;;;10.70;75.90;;;;;;6230921;23;20417;-82
2021/04/04 18:21:31;;;;;;;19.90;14.50;;;10.60;76.20;;;;;;6206096;23;20404;-81
2021/04/04 18:24:02;;;;;;;18.97;10.90;;;10.50;76.60;;;;;;6207503;23;20421;-82
2021/04/04 18:26:29;;;;;;;10.17;9.07;;;10.20;77.10;;;;;;6205868;23;20878;-82
2021/04/04 18:28:56;;;;;;;15.73;7.93;;;10.00;78.30;;;;;;6230050;23;20487;-82
2021/04/04 18:31:23;;;;;;;13.20;8.77;;;9.90;80.30;;;;;;6196708;23;20420;-82
2021/04/04 18:33:51;;;;;;;15.80;8.00;;;9.80;81.10;;;;;;6190129;23;20459;-82
2021/04/04 18:36:18;;;;;;;9.83;8.03;;;9.80;81.60;;;;;;6217514;23;20863;-83
2021/04/04 18:38:46;;;;;;;9.80;7.90;;;9.80;81.60;;;;;;6191796;23;20424;-84
2021/04/04 18:41:13;;;;;;;13.10;8.13;;;10.10;79.60;;;;;;6196807;23;20409;-84
2021/04/04 18:43:39;;;;;;;10.67;7.10;;;10.50;78.40;;;;;;6189719;23;20448;-84
2021/04/04 18:46:18;;;;;;;15.53;7.77;;;10.50;77.20;;;;;;6220821;23;20409;-82
2021/04/04 18:48:49;;;;;;;16.43;8.30;;;10.40;77.30;;;;;;6195148;23;20684;-83
2021/04/04 18:51:15;;;;;;;15.83;11.30;;;10.30;78.10;;;;;;6188740;23;20405;-82
2021/04/04 18:53:42;;;;;;;13.27;8.03;;;10.10;78.30;;;;;;6215499;23;20452;-83
2021/04/04 18:56:10;;;;;;;11.17;7.50;;;10.30;78.70;;;;;;6189286;23;20393;-82
2021/04/04 18:58:37;;;;;;;16.97;7.53;;;10.50;77.90;;;;;;6213538;23;20447;-84
2021/04/04 19:01:03;;;;;;;31.43;23.73;;;10.60;77.70;;;;;;6215656;23;20409;-82
2021/04/04 19:03:30;;;;;;;12.00;8.37;;;10.50;77.30;;;;;;6189034;23;20467;-82
2021/04/04 19:05:57;;;;;;;28.30;14.90;;;10.40;78.40;;;;;;6215495;23;20424;-83
2021/04/04 19:08:24;;;;;;;11.73;9.00;;;10.30;78.20;;;;;;6192211;23;20429;-80
2021/04/04 19:11:00;;;;;;;13.23;9.57;;;10.20;78.70;;;;;;6204282;23;20425;-82
2021/04/04 19:13:28;;;;;;;12.40;8.90;;;10.30;78.60;;;;;;6205123;23;20452;-82
2021/04/04 19:15:56;;;;;;;16.83;12.03;;;10.40;78.50;;;;;;6202732;23;20416;-81
2021/04/04 19:18:24;;;;;;;15.33;10.27;;;10.30;78.40;;;;;;6235411;23;20452;-82
2021/04/04 19:20:50;;;;;;;16.27;9.17;;;10.30;78.40;;;;;;6236480;23;20556;-83